Time;durP1;ratioP1;P1;durP2;ratioP2;P2;SDS_P1;SDS_P2;PMS_P1;PMS_P2;Temp;Humidity;BMP_temperature;BMP_pressure;BME280_temperature;BME280_humidity;BME280_pressure;Samples;Min_cycle;Max_cycle;Signal;HPM_P1;HPM_P2
2022/05/30 00:00:07;;;;;;;;;;;;;;;15.40;59.59;99336.91;4391834;32;20005;-91
2022/05/30 00:02:34;;;;;;;;;;;;;;;15.54;59.46;99335.00;4389076;32;20757;-90
2022/05/30 00:05:01;;;;;;;;;;;;;;;15.73;58.75;99333.91;4407504;32;19982;-91
2022/05/30 00:07:28;;;;;;;;;;;;;;;15.88;57.88;99325.00;4400710;32;20351;-90
2022/05/30 00:09:55;;;;;;;;;;;;;;;15.62;59.24;99322.72;4403043;32;20332;-93
2022/05/30 00:12:22;;;;;;;;;;;;;;;15.67;59.20;99328.78;4407090;32;20024;-94
2022/05/30 00:14:49;;;;;;;;;;;;;;;15.73;59.41;99330.41;4387058;32;19990;-93
2022/05/30 00:17:16;;;;;;;;;;;;;;;15.81;59.08;99319.00;4404410;32;19986;-92
2022/05/30 00:19:42;;;;;;;;;;;;;;;15.89;58.91;99320.63;4406207;32;20046;-91
2022/05/30 00:22:11;;;;;;;;;;;;;;;15.71;59.92;99312.19;4404134;32;19978;-89
2022/05/30 00:24:39;;;;;;;;;;;;;;;15.75;59.74;99308.66;4415922;32;19981;-90
2022/05/30 00:27:06;;;;;;;;;;;;;;;15.77;59.70;99301.66;4415750;32;19978;-89
2022/05/30 00:29:33;;;;;;;;;;;;;;;15.70;59.86;99305.25;4415571;32;19978;-89
2022/05/30 00:32:00;;;;;;;;;;;;;;;15.70;59.93;99305.25;4402506;32;19982;-89
2022/05/30 00:34:28;;;;;;;;;;;;;;;15.92;59.22;99299.72;4403193;32;19993;-89
2022/05/30 00:36:55;;;;;;;;;;;;;;;15.77;59.58;99300.81;4415816;32;19973;-89
2022/05/30 00:39:22;;;;;;;;;;;;;;;15.99;58.98;99296.16;4412430;32;20286;-89
2022/05/30 00:41:49;;;;;;;;;;;;;;;15.80;60.07;99288.59;4407609;32;19975;-91
2022/05/30 00:44:16;;;;;;;;;;;;;;;15.87;59.73;99291.09;4403498;32;19974;-91
2022/05/30 00:46:43;;;;;;;;;;;;;;;15.78;59.81;99287.72;4406483;32;20083;-91
2022/05/30 00:49:11;;;;;;;;;;;;;;;15.60;60.50;99282.72;4401310;32;20033;-91
2022/05/30 00:51:43;;;;;;;;;;;;;;;15.65;60.07;99278.31;4410806;32;19994;-90
2022/05/30 00:54:11;;;;;;;;;;;;;;;15.83;59.77;99273.78;4395126;32;20002;-91
2022/05/30 00:56:39;;;;;;;;;;;;;;;15.89;59.77;99282.38;4389834;32;20020;-91
2022/05/30 00:59:06;;;;;;;;;;;;;;;15.89;59.63;99277.16;4397153;32;20320;-89
2022/05/30 01:01:33;;;;;;;;;;;;;;;15.96;59.66;99275.31;4405064;32;20045;-89
2022/05/30 01:06:47;;;;;;;;;;;;;;;15.95;59.83;99276.19;4392223;32;19990;-90
2022/05/30 01:09:17;;;;;;;;;;;;;;;16.01;59.17;99268.25;4404951;32;20439;-93
2022/05/30 01:11:58;;;;;;;;;;;;;;;16.11;59.09;99268.97;4415341;32;19986;-92
2022/05/30 01:14:31;;;;;;;;;;;;;;;16.13;58.97;99273.28;4414929;32;20358;-90
2022/05/30 01:16:58;;;;;;;;;;;;;;;16.19;58.21;99273.19;4408043;32;20036;-90
2022/05/30 01:19:42;;;;;;;;;;;;;;;16.23;58.09;99266.19;4414895;32;20330;-90
2022/05/30 01:22:09;;;;;;;;;;;;;;;16.05;58.95;99254.28;4399052;32;20025;-89
2022/05/30 01:24:43;;;;;;;;;;;;;;;16.16;58.39;99254.97;4411126;32;20399;-91
2022/05/30 01:27:18;;;;;;;;;;;;;;;16.09;58.74;99261.19;4415956;32;20060;-91
2022/05/30 01:29:46;;;;;;;;;;;;;;;16.22;58.25;99247.03;4415501;32;20050;-92
2022/05/30 01:32:18;;;;;;;;;;;;;;;16.08;58.70;99249.03;4401852;32;19981;-89
2022/05/30 01:34:45;;;;;;;;;;;;;;;16.15;57.94;99250.66;4410266;32;19989;-91
2022/05/30 01:37:12;;;;;;;;;;;;;;;16.00;58.66;99240.44;4406556;32;20029;-90
2022/05/30 01:39:39;;;;;;;;;;;;;;;16.06;58.29;99240.34;4400647;32;20031;-90
2022/05/30 01:42:07;;;;;;;;;;;;;;;16.15;57.95;99240.19;4401467;32;19986;-91
2022/05/30 01:44:34;;;;;;;;;;;;;;;16.23;57.58;99248.75;4393439;32;19989;-91
2022/05/30 01:47:00;;;;;;;;;;;;;;;16.27;57.10;99250.44;4400520;32;19986;-90
2022/05/30 01:49:28;;;;;;;;;;;;;;;16.17;57.79;99253.22;4395496;32;20004;-91
2022/05/30 01:51:55;;;;;;;;;;;;;;;16.21;57.76;99250.53;4415276;32;19986;-89
2022/05/30 01:54:22;;;;;;;;;;;;;;;16.15;58.07;99245.41;4424249;32;20045;-90
2022/05/30 01:56:51;;;;;;;;;;;;;;;16.13;58.50;99247.19;4425138;32;20004;-91
2022/05/30 01:59:19;;;;;;;;;;;;;;;16.06;58.36;99240.34;4420161;32;20392;-92
2022/05/30 02:01:48;;;;;;;;;;;;;;;15.96;58.23;99238.78;4421449;32;19986;-90
2022/05/30 02:04:15;;;;;;;;;;;;;;;16.09;58.18;99244.66;4415169;32;20020;-92
2022/05/30 02:06:42;;;;;;;;;;;;;;;16.08;58.39;99249.03;4412955;32;20002;-92
2022/05/30 02:09:11;;;;;;;;;;;;;;;16.00;58.77;99245.66;4418443;32;20045;-93
2022/05/30 02:11:38;;;;;;;;;;;;;;;16.08;58.46;99249.03;4419440;32;19986;-91
2022/05/30 02:14:06;;;;;;;;;;;;;;;15.84;59.42;99244.16;4415799;32;19978;-92
2022/05/30 02:19:21;;;;;;;;;;;;;;;16.24;57.66;99247.00;4415088;32;20032;-91
2022/05/30 02:21:48;;;;;;;;;;;;;;;16.16;58.09;99256.72;4418474;32;19978;-91
2022/05/30 02:24:15;;;;;;;;;;;;;;;16.08;58.81;99263.81;4422613;32;19981;-90
2022/05/30 02:26:43;;;;;;;;;;;;;;;16.17;58.47;99264.50;4427632;32;19981;-90
2022/05/30 02:29:10;;;;;;;;;;;;;;;16.12;58.40;99257.66;4418625;32;20271;-90
2022/05/30 02:31:42;;;;;;;;;;;;;;;16.09;58.42;99255.09;4424365;32;19969;-93
2022/05/30 02:36:55;;;;;;;;;;;;;;;15.94;59.33;99266.63;4405153;32;19986;-90
2022/05/30 02:39:24;;;;;;;;;;;;;;;15.96;59.33;99262.25;4408385;32;20036;-90
2022/05/30 02:41:54;;;;;;;;;;;;;;;16.21;58.23;99260.13;4405929;32;19989;-89
2022/05/30 02:44:21;;;;;;;;;;;;;;;16.28;58.10;99267.84;4410402;32;19978;-90
2022/05/30 02:46:52;;;;;;;;;;;;;;;16.19;58.27;99267.97;4416675;32;20331;-90
2022/05/30 02:49:19;;;;;;;;;;;;;;;16.02;59.37;99270.88;4424886;32;20394;-93
2022/05/30 02:51:47;;;;;;;;;;;;;;;16.06;58.88;99281.25;4388906;32;20049;-90
2022/05/30 02:54:14;;;;;;;;;;;;;;;16.21;58.46;99276.66;4423555;32;19990;-89
2022/05/30 02:56:53;;;;;;;;;;;;;;;16.27;58.44;99287.00;4421831;32;20005;-89
2022/05/30 02:59:21;;;;;;;;;;;;;;;16.18;58.94;99291.53;4431766;32;19997;-90
2022/05/30 03:01:49;;;;;;;;;;;;;;;16.18;58.85;99292.37;4431653;32;20007;-94
2022/05/30 03:04:16;;;;;;;;;;;;;;;16.07;59.01;99294.28;4374854;32;20022;-93
2022/05/30 03:06:43;;;;;;;;;;;;;;;16.14;58.70;99300.25;4413949;32;19973;-90
2022/05/30 03:09:10;;;;;;;;;;;;;;;16.14;58.67;99295.91;4416511;32;19988;-90
2022/05/30 03:11:42;;;;;;;;;;;;;;;16.22;58.25;99299.28;4419039;32;19989;-90
2022/05/30 03:14:10;;;;;;;;;;;;;;;16.24;58.17;99297.50;4423177;32;19990;-91
2022/05/30 03:16:37;;;;;;;;;;;;;;;16.21;58.57;99301.91;4402742;32;20020;-93
2022/05/30 03:19:04;;;;;;;;;;;;;;;16.32;57.89;99299.13;4418506;32;20027;-90
2022/05/30 03:21:31;;;;;;;;;;;;;;;16.44;57.37;99298.94;4424984;32;20046;-92
2022/05/30 03:23:58;;;;;;;;;;;;;;;16.25;58.00;99309.66;4429554;32;19985;-91
2022/05/30 03:26:25;;;;;;;;;;;;;;;16.39;57.61;99305.97;4418458;32;20382;-93
2022/05/30 03:28:52;;;;;;;;;;;;;;;16.36;57.79;99308.63;4417931;32;20071;-90
2022/05/30 03:31:19;;;;;;;;;;;;;;;16.35;57.95;99314.75;4432070;32;19986;-90
2022/05/30 03:33:47;;;;;;;;;;;;;;;16.35;58.05;99315.59;4425557;32;20028;-93
2022/05/30 03:36:15;;;;;;;;;;;;;;;16.33;58.52;99316.50;4402530;32;20521;-94
2022/05/30 03:38:45;;;;;;;;;;;;;;;16.21;58.58;99312.38;4418579;32;19989;-92
2022/05/30 03:41:15;;;;;;;;;;;;;;;16.48;57.80;99308.44;4423291;32;19990;-94
2022/05/30 03:43:42;;;;;;;;;;;;;;;16.21;58.03;99312.38;4402609;32;20319;-96
2022/05/30 03:46:09;;;;;;;;;;;;;;;16.21;58.66;99301.91;4405955;32;19977;-91
2022/05/30 03:48:36;;;;;;;;;;;;;;;16.33;58.20;99303.44;4416657;32;19993;-93
2022/05/30 03:51:04;;;;;;;;;;;;;;;16.60;57.21;99308.25;4416401;32;20044;-92
2022/05/30 03:53:31;;;;;;;;;;;;;;;16.55;56.52;99306.59;4409137;32;20005;-92
2022/05/30 03:55:58;;;;;;;;;;;;;;;16.53;55.58;99309.22;4431280;32;20022;-91
2022/05/30 03:58:26;;;;;;;;;;;;;;;16.72;55.40;99307.19;4418198;32;20368;-92
2022/05/30 04:00:53;;;;;;;;;;;;;;;16.70;55.96;99296.72;4426826;32;20421;-91
2022/05/30 04:03:21;;;;;;;;;;;;;;;16.61;55.59;99309.94;4420531;32;20053;-92
2022/05/30 04:05:48;;;;;;;;;;;;;;;16.55;56.49;99317.88;4415622;32;19978;-92
2022/05/30 04:08:14;;;;;;;;;;;;;;;16.73;56.47;99317.59;4416296;32;20286;-91
2022/05/30 04:10:44;;;;;;;;;;;;;;;16.57;55.98;99310.91;4421787;32;19998;-90
2022/05/30 04:13:12;;;;;;;;;;;;;;;16.63;55.80;99309.94;4432232;32;19981;-91
2022/05/30 04:15:42;;;;;;;;;;;;;;;16.61;55.26;99306.47;4431637;32;20433;-90
2022/05/30 04:18:09;;;;;;;;;;;;;;;16.73;55.40;99301.91;4429179;32;20031;-92
2022/05/30 04:20:36;;;;;;;;;;;;;;;16.87;54.48;99311.28;4409231;32;20034;-92
2022/05/30 04:23:03;;;;;;;;;;;;;;;16.81;54.46;99319.22;4408486;32;20732;-94
2022/05/30 04:25:30;;;;;;;;;;;;;;;16.60;55.30;99323.91;4421834;32;20008;-89
2022/05/30 04:27:57;;;;;;;;;;;;;;;16.66;54.96;99321.19;4431495;32;20111;-91
2022/05/30 04:30:25;;;;;;;;;;;;;;;16.72;55.83;99321.09;4410345;32;20403;-91
2022/05/30 04:32:52;;;;;;;;;;;;;;;16.81;54.95;99319.22;4428508;32;20007;-84
2022/05/30 04:35:19;;;;;;;;;;;;;;;16.81;55.24;99320.09;4427659;32;20021;-86
2022/05/30 04:37:47;;;;;;;;;;;;;;;16.85;54.70;99326.16;4421819;32;20841;-83
2022/05/30 04:40:18;;;;;;;;;;;;;;;17.07;54.66;99332.72;4431494;32;19993;-83
2022/05/30 04:42:58;;;;;;;;;;;;;;;17.01;54.28;99338.06;4413210;32;19961;-94
2022/05/30 04:45:47;;;;;;;;;;;;;;;16.88;55.40;99344.38;4418243;32;19996;-90
2022/05/30 04:48:17;;;;;;;;;;;;;;;16.93;54.91;99335.56;4402795;32;19978;-86
2022/05/30 04:50:44;;;;;;;;;;;;;;;16.98;54.32;99338.09;4414006;32;20359;-82
2022/05/30 04:53:13;;;;;;;;;;;;;;;16.97;55.12;99344.22;4404755;32;20025;-80
2022/05/30 04:55:42;;;;;;;;;;;;;;;17.10;53.01;99334.38;4422583;32;19997;-85
2022/05/30 04:58:13;;;;;;;;;;;;;;;17.11;53.27;99344.84;4410433;32;19992;-91
2022/05/30 05:00:41;;;;;;;;;;;;;;;17.14;53.20;99339.53;4407205;32;20647;-80
2022/05/30 05:03:07;;;;;;;;;;;;;;;17.07;54.48;99337.94;4410730;32;19987;-79
2022/05/30 05:05:35;;;;;;;;;;;;;;;16.99;53.65;99344.19;4413593;32;19980;-80
2022/05/30 05:08:06;;;;;;;;;;;;;;;16.95;54.84;99353.84;4395171;32;19950;-80
2022/05/30 05:10:47;;;;;;;;;;;;;;;17.22;53.27;99368.16;4400986;32;19978;-79
2022/05/30 05:13:16;;;;;;;;;;;;;;;17.29;53.37;99358.44;4406724;32;19993;-91
2022/05/30 05:15:56;;;;;;;;;;;;;;;17.23;52.69;99359.44;4413651;32;20006;-86
2022/05/30 05:18:24;;;;;;;;;;;;;;;17.35;52.34;99355.72;4421073;32;20694;-79
2022/05/30 05:20:52;;;;;;;;;;;;;;;17.16;52.87;99363.91;4420803;32;20327;-80
2022/05/30 05:23:19;;;;;;;;;;;;;;;17.27;53.04;99360.25;4417443;32;19988;-80
2022/05/30 05:25:47;;;;;;;;;;;;;;;17.25;53.81;99367.25;4414406;32;19962;-80
2022/05/30 05:28:18;;;;;;;;;;;;;;;17.51;52.40;99370.22;4417207;32;20009;-89
2022/05/30 05:30:44;;;;;;;;;;;;;;;17.33;53.97;99365.38;4409966;32;20541;-83
2022/05/30 05:33:11;;;;;;;;;;;;;;;17.31;55.70;99369.75;4412975;32;19972;-90
2022/05/30 05:35:42;;;;;;;;;;;;;;;17.71;53.20;99379.41;4404933;32;19996;-84
2022/05/30 05:38:08;;;;;;;;;;;;;;;17.58;52.48;99377.06;4394141;32;19981;-86
2022/05/30 05:40:44;;;;;;;;;;;;;;;17.65;53.11;99383.91;4419066;32;20028;-79
2022/05/30 05:43:11;;;;;;;;;;;;;;;17.74;53.05;99392.44;4391524;32;19970;-80
2022/05/30 05:45:39;;;;;;;;;;;;;;;17.65;53.27;99383.06;4390506;32;19997;-85
2022/05/30 05:48:07;;;;;;;;;;;;;;;17.66;53.44;99396.09;4409097;32;19970;-83
2022/05/30 05:50:37;;;;;;;;;;;;;;;17.81;53.33;99386.25;4402122;32;19986;-85
2022/05/30 05:53:04;;;;;;;;;;;;;;;17.86;51.71;99393.09;4402395;32;20336;-90
2022/05/30 05:55:38;;;;;;;;;;;;;;;17.74;52.65;99389.84;4415453;32;19986;-83
2022/05/30 05:58:05;;;;;;;;;;;;;;;18.00;51.02;99405.06;4404333;32;20633;-91
2022/05/30 06:00:33;;;;;;;;;;;;;;;18.02;51.04;99404.09;4397218;32;20035;-84
2022/05/30 06:03:00;;;;;;;;;;;;;;;17.99;50.20;99401.56;4414551;32;20172;-82
2022/05/30 06:05:30;;;;;;;;;;;;;;;17.93;52.57;99404.31;4415497;32;19985;-86
2022/05/30 06:08:05;;;;;;;;;;;;;;;18.25;50.16;99400.13;4416798;32;19978;-91
2022/05/30 06:10:33;;;;;;;;;;;;;;;18.06;51.54;99411.03;4414828;32;19992;-87
2022/05/30 06:13:01;;;;;;;;;;;;;;;17.99;50.83;99406.78;4410040;32;19978;-91
2022/05/30 06:15:29;;;;;;;;;;;;;;;18.22;49.41;99405.44;4418274;32;20000;-79
2022/05/30 06:17:57;;;;;;;;;;;;;;;18.22;50.11;99405.44;4413737;32;19977;-81
2022/05/30 06:20:25;;;;;;;;;;;;;;;18.48;48.64;99407.50;4408556;32;19978;-79
2022/05/30 06:22:52;;;;;;;;;;;;;;;18.54;48.87;99408.22;4407320;32;20006;-89
2022/05/30 06:25:19;;;;;;;;;;;;;;;18.45;49.67;99413.66;4409783;32;20461;-80
2022/05/30 06:27:47;;;;;;;;;;;;;;;18.71;48.75;99418.28;4416911;32;19978;-87
2022/05/30 06:30:14;;;;;;;;;;;;;;;19.21;48.77;99421.47;4419766;32;19975;-90
2022/05/30 06:32:41;;;;;;;;;;;;;;;19.40;47.08;99421.84;4418130;32;20053;-83
2022/05/30 06:35:09;;;;;;;;;;;;;;;19.68;46.31;99414.06;4410283;32;19978;-87
2022/05/30 06:37:36;;;;;;;;;;;;;;;19.45;48.02;99419.06;4390007;32;19985;-82
2022/05/30 06:40:04;;;;;;;;;;;;;;;19.65;48.03;99422.03;4403335;32;20559;-91
2022/05/30 06:42:31;;;;;;;;;;;;;;;19.62;46.24;99421.22;4408885;32;20033;-87
2022/05/30 06:45:10;;;;;;;;;;;;;;;19.16;49.89;99430.34;4411944;32;20336;-80
2022/05/30 06:47:39;;;;;;;;;;;;;;;19.57;47.26;99428.41;4376982;32;20024;-87
2022/05/30 06:50:09;;;;;;;;;;;;;;;19.41;47.16;99428.81;4403945;32;19997;-83
2022/05/30 06:52:36;;;;;;;;;;;;;;;19.71;47.45;99421.00;4392341;32;20002;-84
2022/05/30 06:55:04;;;;;;;;;;;;;;;19.87;47.81;99438.06;4412495;32;19994;-95
2022/05/30 07:00:18;;;;;;;;;;;;;;;20.01;43.72;99435.06;4389570;32;20006;-83
2022/05/30 07:02:47;;;;;;;;;;;;;;;19.70;46.40;99435.06;4401097;32;19986;-87
2022/05/30 07:05:21;;;;;;;;;;;;;;;19.43;48.35;99445.37;4402979;32;20009;-87
2022/05/30 07:08:03;;;;;;;;;;;;;;;19.56;48.82;99431.91;4402121;32;20000;-81
2022/05/30 07:10:31;;;;;;;;;;;;;;;20.50;45.13;99427.47;4402289;32;19990;-82
2022/05/30 07:12:58;;;;;;;;;;;;;;;20.90;43.60;99427.94;4403525;32;19974;-95
2022/05/30 07:15:26;;;;;;;;;;;;;;;20.92;42.87;99424.41;4419492;32;19990;-89
2022/05/30 07:17:53;;;;;;;;;;;;;;;20.69;43.44;99428.63;4413596;32;19975;-86
2022/05/30 07:20:20;;;;;;;;;;;;;;;20.82;44.95;99429.97;4401571;32;20421;-83
2022/05/30 07:22:48;;;;;;;;;;;;;;;20.84;43.31;99428.16;4407909;32;19993;-85
2022/05/30 07:25:22;;;;;;;;;;;;;;;20.82;42.32;99418.56;4416159;32;19982;-84
2022/05/30 07:27:53;;;;;;;;;;;;;;;20.87;43.39;99411.41;4413682;32;19994;-84
2022/05/30 07:30:25;;;;;;;;;;;;;;;21.61;39.92;99419.44;4415056;32;20013;-87
2022/05/30 07:33:01;;;;;;;;;;;;;;;21.23;40.57;99419.81;4414085;32;20055;-87
2022/05/30 07:35:43;;;;;;;;;;;;;;;20.63;42.75;99423.56;4418241;32;19983;-88
2022/05/30 07:38:15;;;;;;;;;;;;;;;20.75;42.75;99423.19;4410016;32;20092;-90
2022/05/30 07:40:43;;;;;;;;;;;;;;;21.41;41.20;99422.75;4416589;32;20004;-92
2022/05/30 07:43:12;;;;;;;;;;;;;;;21.27;41.71;99424.06;4410218;32;20001;-82
2022/05/30 07:45:42;;;;;;;;;;;;;;;21.32;39.49;99413.41;4402225;32;20610;-79
2022/05/30 07:48:09;;;;;;;;;;;;;;;21.26;39.33;99425.00;4401218;32;19979;-78
2022/05/30 07:50:37;;;;;;;;;;;;;;;20.80;41.29;99421.25;4412110;32;19978;-81
2022/05/30 07:53:05;;;;;;;;;;;;;;;21.16;40.03;99418.31;4407142;32;19997;-82
2022/05/30 07:55:33;;;;;;;;;;;;;;;21.37;38.62;99417.59;4416244;32;20358;-83
2022/05/30 07:58:04;;;;;;;;;;;;;;;21.62;39.67;99419.38;4415800;32;20088;-80
2022/05/30 08:00:34;;;;;;;;;;;;;;;21.44;38.55;99428.81;4415530;32;20005;-83
2022/05/30 08:03:02;;;;;;;;;;;;;;;21.50;38.75;99425.06;4412581;32;20028;-80
2022/05/30 08:05:29;;;;;;;;;;;;;;;21.63;37.99;99423.72;4424131;32;20336;-85
2022/05/30 08:07:59;;;;;;;;;;;;;;;21.33;40.89;99426.50;4425836;32;19994;-83
2022/05/30 08:10:30;;;;;;;;;;;;;;;21.58;38.20;99431.78;4412874;32;20752;-82
2022/05/30 08:13:00;;;;;;;;;;;;;;;21.86;37.36;99436.09;4414259;32;20004;-83
2022/05/30 08:15:30;;;;;;;;;;;;;;;21.77;36.78;99429.34;4424383;32;19982;-80
2022/05/30 08:17:59;;;;;;;;;;;;;;;21.61;38.37;99428.19;4414923;32;20782;-83
2022/05/30 08:20:27;;;;;;;;;;;;;;;21.76;39.13;99439.94;4414897;32;20024;-86
2022/05/30 08:22:55;;;;;;;;;;;;;;;21.81;38.51;99449.41;4423804;32;20005;-87
2022/05/30 08:25:23;;;;;;;;;;;;;;;21.95;37.58;99450.66;4424415;32;20043;-80
2022/05/30 08:27:50;;;;;;;;;;;;;;;22.18;36.27;99453.38;4403429;32;20056;-84
2022/05/30 08:30:18;;;;;;;;;;;;;;;22.42;34.57;99450.69;4411118;32;20001;-80
2022/05/30 08:32:47;;;;;;;;;;;;;;;22.49;35.76;99444.25;4412738;32;20040;-85
2022/05/30 08:35:18;;;;;;;;;;;;;;;22.78;36.24;99458.94;4413430;32;19986;-80
2022/05/30 08:37:46;;;;;;;;;;;;;;;23.12;33.87;99447.91;4385999;32;19974;-87
2022/05/30 08:43:06;;;;;;;;;;;;;;;23.29;32.84;99436.59;4410816;32;20028;-88
2022/05/30 08:45:34;;;;;;;;;;;;;;;23.03;34.45;99416.59;4392136;32;19994;-81
2022/05/30 08:48:04;;;;;;;;;;;;;;;22.89;33.88;99421.56;4387970;32;19970;-79
2022/05/30 08:50:35;;;;;;;;;;;;;;;22.18;36.43;99432.28;4415539;32;19982;-79
2022/05/30 08:53:14;;;;;;;;;;;;;;;22.20;37.27;99443.59;4409993;32;20348;-80
2022/05/30 08:55:47;;;;;;;;;;;;;;;21.89;40.19;99445.63;4401250;32;19986;-79
2022/05/30 08:58:33;;;;;;;;;;;;;;;22.55;36.41;99438.75;4400646;32;19974;-79
2022/05/30 09:01:02;;;;;;;;;;;;;;;23.18;34.09;99447.63;4406792;32;20061;-79
2022/05/30 09:03:33;;;;;;;;;;;;;;;22.93;37.83;99458.34;4391033;32;20020;-79
2022/05/30 09:06:04;;;;;;;;;;;;;;;22.77;37.60;99462.50;4377037;32;20042;-79
2022/05/30 09:08:38;;;;;;;;;;;;;;;23.46;33.92;99467.63;4388111;32;20001;-78
2022/05/30 09:11:18;;;;;;;;;;;;;;;23.12;35.48;99458.47;4388573;32;19982;-80
2022/05/30 09:13:46;;;;;;;;;;;;;;;22.98;35.91;99458.19;4324716;32;20008;-80
2022/05/30 09:16:17;;;;;;;;;;;;;;;23.08;34.41;99467.44;4402204;32;20009;-86
2022/05/30 09:18:46;;;;;;;;;;;;;;;22.70;35.99;99461.03;4404303;32;19982;-80
2022/05/30 09:21:14;;;;;;;;;;;;;;;23.12;34.53;99466.38;4408753;32;20020;-80
2022/05/30 09:23:44;;;;;;;;;;;;;;;22.73;35.49;99461.75;4427582;32;20334;-87
2022/05/30 09:26:13;;;;;;;;;;;;;;;22.74;35.84;99463.47;4425814;32;19985;-86
2022/05/30 09:28:42;;;;;;;;;;;;;;;22.83;33.31;99466.69;4413015;32;20097;-82
2022/05/30 09:31:21;;;;;;;;;;;;;;;23.24;32.53;99466.81;4417880;32;20005;-86
2022/05/30 09:33:53;;;;;;;;;;;;;;;22.52;36.16;99467.87;4419746;32;20049;-79
2022/05/30 09:36:27;;;;;;;;;;;;;;;22.24;36.83;99466.31;4421743;32;20001;-79
2022/05/30 09:39:00;;;;;;;;;;;;;;;22.71;34.44;99463.59;4423651;32;19992;-79
2022/05/30 09:41:30;;;;;;;;;;;;;;;22.81;33.32;99457.97;4415483;32;19993;-78
2022/05/30 09:43:59;;;;;;;;;;;;;;;22.44;34.14;99462.06;4407914;32;19982;-82
2022/05/30 09:46:30;;;;;;;;;;;;;;;22.89;33.04;99477.00;4410911;32;19978;-78
2022/05/30 09:49:01;;;;;;;;;;;;;;;22.54;36.09;99473.97;4414823;32;19981;-83
2022/05/30 09:51:44;;;;;;;;;;;;;;;22.54;33.36;99484.53;4410862;32;20009;-79
2022/05/30 09:54:13;;;;;;;;;;;;;;;22.64;36.35;99488.50;4411881;32;19958;-79
2022/05/30 09:56:41;;;;;;;;;;;;;;;22.68;35.88;99484.81;4414734;32;20355;-79
2022/05/30 09:59:18;;;;;;;;;;;;;;;22.67;35.51;99483.13;4423378;32;19986;-94
2022/05/30 10:01:51;;;;;;;;;;;;;;;22.08;36.80;99490.63;4410166;32;20646;-80
2022/05/30 10:04:22;;;;;;;;;;;;;;;22.45;35.41;99488.38;4419709;32;19954;-96
2022/05/30 10:07:05;;;;;;;;;;;;;;;22.66;34.71;99486.69;4425048;32;20766;-86
2022/05/30 10:09:34;;;;;;;;;;;;;;;22.73;34.31;99488.16;4429750;32;20270;-79
2022/05/30 10:12:02;;;;;;;;;;;;;;;23.01;32.99;99495.00;4422530;32;20060;-79
2022/05/30 10:14:34;;;;;;;;;;;;;;;23.17;32.58;99493.47;4409558;32;20003;-88
2022/05/30 10:17:13;;;;;;;;;;;;;;;22.67;34.75;99488.41;4401986;32;19997;-87
2022/05/30 10:19:41;;;;;;;;;;;;;;;22.58;34.36;99491.37;4426906;32;20014;-79
2022/05/30 10:28:16;;;;;;;;;;;;;;;23.05;33.96;99491.31;4415146;32;19994;-82
2022/05/30 10:30:52;;;;;;;;;;;;;;;23.14;34.10;99493.59;4416821;32;20303;-88
2022/05/30 10:33:42;;;;;;;;;;;;;;;22.89;34.82;99498.09;4393387;32;20367;-89
2022/05/30 10:36:12;;;;;;;;;;;;;;;22.60;36.24;99496.63;4393687;32;20475;-88
2022/05/30 10:38:57;;;;;;;;;;;;;;;22.42;36.63;99503.44;4403362;32;20356;-91
2022/05/30 10:41:25;;;;;;;;;;;;;;;22.75;35.54;99496.88;4401361;32;19988;-85
2022/05/30 10:44:02;;;;;;;;;;;;;;;22.98;34.34;99508.34;4403274;32;19997;-94
2022/05/30 10:46:48;;;;;;;;;;;;;;;22.84;33.61;99500.91;4402856;32;19992;-90
2022/05/30 10:49:18;;;;;;;;;;;;;;;22.71;32.56;99507.59;4402915;32;20033;-86
2022/05/30 10:51:54;;;;;;;;;;;;;;;22.46;34.73;99502.41;4399143;32;19992;-89
2022/05/30 10:54:27;;;;;;;;;;;;;;;22.51;35.77;99497.81;4408937;32;20077;-79
2022/05/30 10:57:20;;;;;;;;;;;;;;;22.99;32.71;99499.47;4407517;32;19970;-85
2022/05/30 11:00:09;;;;;;;;;;;;;;;22.63;33.64;99497.34;4411902;32;20463;-89
2022/05/30 11:02:36;;;;;;;;;;;;;;;23.05;32.09;99493.97;4413033;32;20683;-93
2022/05/30 11:05:27;;;;;;;;;;;;;;;23.11;32.06;99509.56;4416538;32;19997;-88
2022/05/30 11:07:57;;;;;;;;;;;;;;;22.58;35.18;99509.84;4412462;32;20266;-79
2022/05/30 11:10:32;;;;;;;;;;;;;;;22.85;34.96;99522.91;4400395;32;20071;-81
2022/05/30 11:13:03;;;;;;;;;;;;;;;23.06;31.75;99522.06;4417311;32;19978;-87
2022/05/30 11:15:36;;;;;;;;;;;;;;;23.06;33.25;99532.62;4411094;32;19977;-81
2022/05/30 11:18:21;;;;;;;;;;;;;;;22.79;33.38;99533.72;4413321;32;19954;-79
2022/05/30 11:20:57;;;;;;;;;;;;;;;22.91;33.34;99535.84;4424574;32;20814;-79
2022/05/30 11:23:24;;;;;;;;;;;;;;;23.11;32.83;99533.31;4402556;32;19958;-79
2022/05/30 11:25:56;;;;;;;;;;;;;;;22.89;32.49;99545.63;4423774;32;19993;-78
2022/05/30 11:28:27;;;;;;;;;;;;;;;22.85;31.83;99544.88;4399242;32;19992;-78
2022/05/30 11:31:04;;;;;;;;;;;;;;;22.74;33.22;99547.06;4399245;32;20012;-78
2022/05/30 11:33:41;;;;;;;;;;;;;;;22.42;33.92;99529.81;4406399;32;19973;-78
2022/05/30 11:36:44;;;;;;;;;;;;;;;22.28;35.06;99531.19;4411147;32;19993;-79
2022/05/30 11:39:13;;;;;;;;;;;;;;;22.14;36.54;99524.66;4362012;32;19975;-86
2022/05/30 11:41:41;;;;;;;;;;;;;;;22.08;35.87;99531.03;4403609;32;19984;-80
2022/05/30 11:44:23;;;;;;;;;;;;;;;22.38;34.32;99525.59;4426852;32;20018;-80
2022/05/30 11:47:09;;;;;;;;;;;;;;;22.27;34.41;99529.50;4417993;32;19962;-79
2022/05/30 11:49:37;;;;;;;;;;;;;;;22.05;35.95;99521.47;4421869;32;19997;-80
2022/05/30 11:52:18;;;;;;;;;;;;;;;22.04;35.75;99524.12;4431748;32;19982;-78
2022/05/30 11:54:51;;;;;;;;;;;;;;;21.82;36.44;99530.19;4424196;32;20021;-79
2022/05/30 11:57:23;;;;;;;;;;;;;;;22.38;34.72;99522.94;4424366;32;20038;-92
2022/05/30 11:59:50;;;;;;;;;;;;;;;21.92;35.78;99524.56;4424412;32;19993;-82
2022/05/30 12:02:21;;;;;;;;;;;;;;;21.79;35.63;99530.31;4417144;32;19966;-79
2022/05/30 12:05:16;;;;;;;;;;;;;;;22.10;36.00;99529.19;4406705;32;19974;-79
2022/05/30 12:07:43;;;;;;;;;;;;;;;21.51;36.99;99521.63;4407799;32;19962;-79
2022/05/30 12:10:13;;;;;;;;;;;;;;;21.56;36.92;99527.56;4421957;32;19989;-86
2022/05/30 12:12:42;;;;;;;;;;;;;;;21.88;38.18;99520.34;4413595;32;19981;-86
2022/05/30 12:15:24;;;;;;;;;;;;;;;22.42;35.24;99525.41;4421067;32;19968;-80
2022/05/30 12:24:03;;;;;;;;;;;;;;;21.44;36.93;99533.25;4412238;32;19964;-80
2022/05/30 12:26:46;;;;;;;;;;;;;;;20.84;38.04;99537.78;4422503;32;19969;-82
2022/05/30 12:29:31;;;;;;;;;;;;;;;21.45;34.95;99522.69;4422515;32;19982;-79
2022/05/30 12:32:21;;;;;;;;;;;;;;;21.32;36.24;99514.31;4419998;32;19950;-83
2022/05/30 12:34:57;;;;;;;;;;;;;;;21.73;34.40;99514.69;4420167;32;19996;-90
2022/05/30 12:37:44;;;;;;;;;;;;;;;22.01;34.21;99513.72;4422253;32;19957;-84
2022/05/30 12:40:26;;;;;;;;;;;;;;;21.09;37.55;99519.44;4415961;32;19981;-89
2022/05/30 12:42:57;;;;;;;;;;;;;;;21.73;36.06;99512.06;4415048;32;19978;-87
2022/05/30 12:45:33;;;;;;;;;;;;;;;22.24;34.63;99513.78;4424936;32;20037;-91
2022/05/30 12:48:02;;;;;;;;;;;;;;;21.59;37.00;99514.31;4417743;32;19974;-84
2022/05/30 12:50:35;;;;;;;;;;;;;;;21.05;38.06;99515.19;4403710;32;20013;-91
2022/05/30 12:53:03;;;;;;;;;;;;;;;21.49;37.37;99505.00;4415017;32;19996;-90
2022/05/30 12:55:36;;;;;;;;;;;;;;;21.90;38.73;99505.34;4392949;32;19982;-87
2022/05/30 12:58:03;;;;;;;;;;;;;;;21.96;36.22;99505.97;4410296;32;19974;-90
2022/05/30 13:00:40;;;;;;;;;;;;;;;22.23;35.30;99498.84;4393846;32;20362;-84
2022/05/30 13:03:13;;;;;;;;;;;;;;;22.04;36.76;99503.06;4404255;32;19986;-83
2022/05/30 13:05:40;;;;;;;;;;;;;;;22.18;35.01;99503.47;4392249;32;19986;-80
2022/05/30 13:08:26;;;;;;;;;;;;;;;21.56;36.89;99498.59;4408998;32;20274;-81
2022/05/30 13:10:53;;;;;;;;;;;;;;;21.87;34.65;99495.75;4423678;32;20016;-80
2022/05/30 13:13:21;;;;;;;;;;;;;;;21.88;35.87;99496.63;4408025;32;20024;-84
2022/05/30 13:15:50;;;;;;;;;;;;;;;22.12;36.45;99501.00;4408452;32;19981;-86
2022/05/30 13:18:19;;;;;;;;;;;;;;;21.76;37.61;99509.34;4410093;32;19984;-81
2022/05/30 13:20:48;;;;;;;;;;;;;;;22.07;35.61;99502.94;4422233;32;19964;-81
2022/05/30 13:23:16;;;;;;;;;;;;;;;22.22;36.30;99502.41;4423230;32;19962;-80
2022/05/30 13:25:46;;;;;;;;;;;;;;;22.31;34.65;99505.66;4423397;32;19938;-81
2022/05/30 13:28:19;;;;;;;;;;;;;;;21.90;37.84;99518.53;4420756;32;19984;-88
2022/05/30 13:30:47;;;;;;;;;;;;;;;22.04;37.17;99525.00;4420272;32;19982;-84